Time;durP1;ratioP1;P1;durP2;ratioP2;P2;SDS_P1;SDS_P2;PMS_P1;PMS_P2;Temp;Humidity;BMP_temperature;BMP_pressure;BME280_temperature;BME280_humidity;BME280_pressure;Samples;Min_cycle;Max_cycle;Signal;HPM_P1;HPM_P2
2022/08/30 00:02:51;;;;;;;3.65;1.98;;;;;;;;;;5090926;28;20102;-68
2022/08/30 00:05:16;;;;;;;4.30;2.47;;;;;;;;;;5089881;28;20036;-68
2022/08/30 00:07:42;;;;;;;5.63;1.90;;;;;;;;;;5090089;28;20039;-68
2022/08/30 00:10:08;;;;;;;8.00;2.53;;;;;;;;;;5090171;28;20012;-68
2022/08/30 00:12:34;;;;;;;6.53;2.05;;;;;;;;;;5090134;28;20254;-67
2022/08/30 00:14:59;;;;;;;8.00;3.03;;;;;;;;;;5090049;28;20077;-67
2022/08/30 00:17:25;;;;;;;6.43;2.43;;;;;;;;;;5089925;28;20038;-68
2022/08/30 00:19:51;;;;;;;6.43;2.88;;;;;;;;;;5090105;28;20261;-68
2022/08/30 00:22:16;;;;;;;12.82;3.65;;;;;;;;;;5090352;28;20389;-68
2022/08/30 00:24:41;;;;;;;5.97;2.20;;;;;;;;;;5090082;28;20031;-67
2022/08/30 00:27:06;;;;;;;3.85;2.00;;;;;;;;;;5089668;28;20277;-68
2022/08/30 00:29:31;;;;;;;7.83;2.43;;;;;;;;;;5090464;28;20024;-68
2022/08/30 00:31:56;;;;;;;9.07;3.28;;;;;;;;;;5090074;28;20274;-68
2022/08/30 00:34:22;;;;;;;5.00;2.30;;;;;;;;;;5090253;28;20529;-68
2022/08/30 00:36:47;;;;;;;5.57;1.97;;;;;;;;;;5089950;28;20258;-67
2022/08/30 00:39:12;;;;;;;6.30;2.13;;;;;;;;;;5089855;28;20020;-68
2022/08/30 00:41:38;;;;;;;7.15;2.25;;;;;;;;;;5090158;28;20356;-68
2022/08/30 00:44:03;;;;;;;7.95;3.28;;;;;;;;;;5089877;28;20099;-68
2022/08/30 00:46:28;;;;;;;7.25;2.40;;;;;;;;;;5089922;28;20358;-68
2022/08/30 00:48:55;;;;;;;8.17;3.03;;;;;;;;;;5089962;28;20024;-68
2022/08/30 00:51:21;;;;;;;9.90;2.90;;;;;;;;;;5089767;28;20265;-68
2022/08/30 00:53:49;;;;;;;8.55;2.95;;;;;;;;;;5089889;28;20081;-68
2022/08/30 00:56:14;;;;;;;9.10;3.30;;;;;;;;;;5089606;28;20539;-68
2022/08/30 00:58:42;;;;;;;6.85;2.85;;;;;;;;;;5089712;28;20024;-67
2022/08/30 01:01:08;;;;;;;7.97;2.88;;;;;;;;;;5089568;28;20028;-67
2022/08/30 01:03:34;;;;;;;6.88;2.30;;;;;;;;;;5089712;28;20069;-68
2022/08/30 01:06:00;;;;;;;3.58;2.00;;;;;;;;;;5089421;28;20043;-68
2022/08/30 01:08:26;;;;;;;7.20;2.35;;;;;;;;;;5091807;28;20469;-68
2022/08/30 01:10:52;;;;;;;5.32;2.67;;;;;;;;;;5093382;28;20077;-68
2022/08/30 01:13:18;;;;;;;10.48;2.70;;;;;;;;;;5092739;28;20024;-68
2022/08/30 01:15:44;;;;;;;5.22;2.38;;;;;;;;;;5093005;28;20073;-68
2022/08/30 01:18:10;;;;;;;5.32;2.30;;;;;;;;;;5093220;28;20104;-68
2022/08/30 01:20:59;;;;;;;5.22;2.33;;;;;;;;;;5093481;28;20111;-68
2022/08/30 01:23:24;;;;;;;6.18;2.55;;;;;;;;;;5092953;28;20028;-68
2022/08/30 01:25:51;;;;;;;4.88;2.20;;;;;;;;;;5092999;28;20391;-68
2022/08/30 01:28:18;;;;;;;9.43;2.53;;;;;;;;;;5092830;28;20024;-68
2022/08/30 01:30:43;;;;;;;6.30;2.33;;;;;;;;;;5092865;28;20393;-68
2022/08/30 01:33:10;;;;;;;6.35;2.53;;;;;;;;;;5092957;28;20016;-68
2022/08/30 01:35:54;;;;;;;5.15;1.88;;;;;;;;;;5092579;28;20016;-67
2022/08/30 01:38:39;;;;;;;8.00;2.55;;;;;;;;;;5092884;28;20483;-68
2022/08/30 01:41:07;;;;;;;7.93;2.33;;;;;;;;;;5074676;28;20105;-67
2022/08/30 01:43:32;;;;;;;4.72;2.22;;;;;;;;;;5092960;28;20042;-68
2022/08/30 01:45:59;;;;;;;3.87;1.90;;;;;;;;;;5092536;28;20478;-68
2022/08/30 01:48:24;;;;;;;11.02;2.85;;;;;;;;;;5092751;28;20282;-68
2022/08/30 01:50:49;;;;;;;5.65;2.47;;;;;;;;;;5092889;28;20020;-67
2022/08/30 01:53:15;;;;;;;11.20;2.75;;;;;;;;;;5092370;28;20028;-68
2022/08/30 01:55:40;;;;;;;7.25;2.58;;;;;;;;;;5092337;28;20022;-68
2022/08/30 01:58:05;;;;;;;9.55;2.60;;;;;;;;;;5092375;28;20024;-67
2022/08/30 02:00:31;;;;;;;8.50;2.72;;;;;;;;;;5092450;28;20245;-68
2022/08/30 02:02:56;;;;;;;7.45;2.60;;;;;;;;;;5093003;28;20028;-67
2022/08/30 02:05:22;;;;;;;5.38;2.25;;;;;;;;;;5092413;28;20039;-68
2022/08/30 02:07:47;;;;;;;7.00;1.90;;;;;;;;;;5092087;28;20413;-68
2022/08/30 02:10:13;;;;;;;7.10;1.90;;;;;;;;;;5091779;28;20073;-67
2022/08/30 02:12:38;;;;;;;6.38;2.83;;;;;;;;;;5091885;28;20404;-67
2022/08/30 02:15:05;;;;;;;4.43;2.67;;;;;;;;;;5091664;28;20020;-68
2022/08/30 02:17:31;;;;;;;6.05;2.40;;;;;;;;;;5091867;28;20091;-68
2022/08/30 02:19:57;;;;;;;10.05;2.05;;;;;;;;;;5091068;28;20027;-68
2022/08/30 02:22:22;;;;;;;10.50;2.58;;;;;;;;;;5091998;28;20107;-68
2022/08/30 02:24:47;;;;;;;6.57;2.27;;;;;;;;;;5091328;28;20100;-68
2022/08/30 02:27:12;;;;;;;13.93;2.88;;;;;;;;;;5090738;28;20339;-68
2022/08/30 02:29:38;;;;;;;3.73;2.23;;;;;;;;;;5091567;28;20092;-68
2022/08/30 02:32:03;;;;;;;5.35;3.15;;;;;;;;;;5091856;28;20008;-68
2022/08/30 02:34:29;;;;;;;5.53;2.70;;;;;;;;;;5091638;28;20016;-68
2022/08/30 02:36:54;;;;;;;5.10;2.30;;;;;;;;;;5097829;22;20040;-88
2022/08/30 02:39:19;;;;;;;6.50;2.50;;;;;;;;;;5067812;28;20251;-91
2022/08/30 02:41:44;;;;;;;6.80;2.50;;;;;;;;;;5069107;28;20020;-87
2022/08/30 02:44:10;;;;;;;8.20;3.10;;;;;;;;;;5068707;28;20025;-87
2022/08/30 02:46:36;;;;;;;7.70;2.55;;;;;;;;;;5067729;28;20016;-91
2022/08/30 02:49:01;;;;;;;6.13;2.65;;;;;;;;;;5070180;28;20286;-87
2022/08/30 02:51:26;;;;;;;6.18;2.50;;;;;;;;;;5067639;28;20028;-87
2022/08/30 02:53:51;;;;;;;9.35;2.63;;;;;;;;;;5067813;28;20024;-87
2022/08/30 02:56:17;;;;;;;5.77;2.40;;;;;;;;;;5068371;28;20328;-88
2022/08/30 02:58:42;;;;;;;8.27;2.33;;;;;;;;;;5067503;28;20337;-90
2022/08/30 03:01:09;;;;;;;4.95;2.40;;;;;;;;;;5067694;28;20028;-87
2022/08/30 03:03:34;;;;;;;5.53;2.72;;;;;;;;;;5066911;28;20056;-87
2022/08/30 03:06:02;;;;;;;6.45;2.97;;;;;;;;;;5068237;28;20048;-87
2022/08/30 03:08:27;;;;;;;5.15;2.30;;;;;;;;;;5067005;28;20364;-87
2022/08/30 03:10:52;;;;;;;7.10;2.40;;;;;;;;;;5067433;28;20495;-87
2022/08/30 03:13:17;;;;;;;6.72;2.60;;;;;;;;;;5067480;28;20198;-87
2022/08/30 03:15:42;;;;;;;7.82;2.50;;;;;;;;;;5063254;28;20019;-90
2022/08/30 03:18:09;;;;;;;6.17;2.60;;;;;;;;;;5066570;28;20399;-89
2022/08/30 03:20:34;;;;;;;7.00;2.70;;;;;;;;;;5068651;28;20295;-91
2022/08/30 03:23:00;;;;;;;4.40;2.42;;;;;;;;;;5067284;28;20113;-86
2022/08/30 03:25:25;;;;;;;4.85;2.10;;;;;;;;;;5067877;28;20019;-87
2022/08/30 03:27:50;;;;;;;3.87;2.03;;;;;;;;;;5068457;28;20077;-87
2022/08/30 03:30:17;;;;;;;9.33;2.77;;;;;;;;;;5067054;28;20285;-90
2022/08/30 03:32:42;;;;;;;8.23;2.10;;;;;;;;;;5067298;28;20746;-89
2022/08/30 03:35:08;;;;;;;7.30;2.30;;;;;;;;;;5068814;28;20027;-91
2022/08/30 03:37:34;;;;;;;14.77;2.67;;;;;;;;;;5067521;28;20488;-91
2022/08/30 03:39:59;;;;;;;4.85;2.30;;;;;;;;;;5068862;28;20027;-87
2022/08/30 03:42:24;;;;;;;6.22;2.70;;;;;;;;;;5066865;28;20021;-88
2022/08/30 03:44:50;;;;;;;13.80;3.22;;;;;;;;;;5067276;28;20120;-88
2022/08/30 03:47:15;;;;;;;8.82;2.95;;;;;;;;;;5066253;28;20029;-90
2022/08/30 03:49:41;;;;;;;9.13;2.30;;;;;;;;;;5068353;28;20078;-87
2022/08/30 03:52:06;;;;;;;5.28;2.58;;;;;;;;;;5068617;28;20395;-88
2022/08/30 03:54:31;;;;;;;7.50;2.95;;;;;;;;;;5074785;22;20127;-63
2022/08/30 03:56:57;;;;;;;8.30;2.83;;;;;;;;;;5069396;28;20026;-63
2022/08/30 03:59:22;;;;;;;4.55;2.25;;;;;;;;;;5070031;28;20964;-63
2022/08/30 04:01:47;;;;;;;5.45;2.80;;;;;;;;;;5070440;28;20023;-63
2022/08/30 04:04:13;;;;;;;3.77;2.40;;;;;;;;;;5070358;28;20017;-64
2022/08/30 04:06:38;;;;;;;7.82;1.98;;;;;;;;;;5069845;28;20585;-63
2022/08/30 04:09:04;;;;;;;7.18;2.28;;;;;;;;;;5070464;28;20384;-63
2022/08/30 04:11:29;;;;;;;6.68;2.25;;;;;;;;;;5070253;28;20484;-63
2022/08/30 04:13:55;;;;;;;9.00;2.50;;;;;;;;;;5070409;28;20029;-65
2022/08/30 04:16:21;;;;;;;8.82;2.67;;;;;;;;;;5069923;28;20258;-64
2022/08/30 04:18:46;;;;;;;10.10;2.75;;;;;;;;;;5070304;28;20023;-63
2022/08/30 04:21:11;;;;;;;10.18;2.78;;;;;;;;;;5070398;28;20024;-63
2022/08/30 04:23:36;;;;;;;9.67;3.13;;;;;;;;;;5070509;28;20060;-63
2022/08/30 04:26:02;;;;;;;9.10;2.90;;;;;;;;;;5070162;28;20251;-64
2022/08/30 04:28:27;;;;;;;5.97;2.50;;;;;;;;;;5070096;28;20769;-63
2022/08/30 04:30:52;;;;;;;8.23;2.88;;;;;;;;;;5070185;28;20636;-63
2022/08/30 04:33:18;;;;;;;10.10;2.78;;;;;;;;;;5070245;28;20019;-64
2022/08/30 04:35:44;;;;;;;5.13;3.05;;;;;;;;;;5069973;28;20024;-63
2022/08/30 04:38:10;;;;;;;10.98;2.60;;;;;;;;;;5070072;28;20028;-64
2022/08/30 04:40:35;;;;;;;7.65;3.05;;;;;;;;;;5069959;28;20462;-63
2022/08/30 04:43:00;;;;;;;7.10;3.33;;;;;;;;;;5071665;28;20024;-63
2022/08/30 04:45:25;;;;;;;7.03;2.72;;;;;;;;;;5073604;28;20048;-64
2022/08/30 04:47:50;;;;;;;11.83;3.27;;;;;;;;;;5073630;28;20644;-63
2022/08/30 04:50:17;;;;;;;8.13;3.50;;;;;;;;;;5073492;28;20254;-64
2022/08/30 04:52:42;;;;;;;9.48;3.20;;;;;;;;;;5073654;28;20255;-63
2022/08/30 04:55:09;;;;;;;5.07;2.70;;;;;;;;;;5073142;28;20477;-65
2022/08/30 04:57:34;;;;;;;6.00;3.08;;;;;;;;;;5073662;28;20016;-64
2022/08/30 04:59:59;;;;;;;8.55;3.08;;;;;;;;;;5073546;28;20024;-64
2022/08/30 05:02:25;;;;;;;11.73;3.35;;;;;;;;;;5073269;28;20025;-64
2022/08/30 05:07:34;;;;;;;6.55;3.47;;;;;;;;;;5073352;28;20031;-63
2022/08/30 05:09:59;;;;;;;8.68;3.38;;;;;;;;;;5073804;28;20403;-63
2022/08/30 05:12:24;;;;;;;11.48;2.90;;;;;;;;;;5073385;28;20020;-63
2022/08/30 05:14:50;;;;;;;9.27;3.22;;;;;;;;;;5055230;28;20023;-63
2022/08/30 05:17:15;;;;;;;7.40;2.88;;;;;;;;;;5072744;28;20354;-64
2022/08/30 05:19:40;;;;;;;5.90;2.70;;;;;;;;;;5073039;28;20384;-63
2022/08/30 05:22:05;;;;;;;6.53;2.97;;;;;;;;;;5073039;28;20379;-63
2022/08/30 05:24:30;;;;;;;6.65;3.13;;;;;;;;;;5072896;28;20617;-64
2022/08/30 05:26:56;;;;;;;18.30;3.38;;;;;;;;;;5072530;28;20020;-62
2022/08/30 05:29:21;;;;;;;7.50;2.83;;;;;;;;;;5072808;28;20016;-64
2022/08/30 05:31:47;;;;;;;12.60;3.53;;;;;;;;;;5072893;28;20353;-63
2022/08/30 05:34:12;;;;;;;10.23;2.90;;;;;;;;;;5072768;28;20104;-64
2022/08/30 05:36:37;;;;;;;10.90;3.17;;;;;;;;;;5072560;28;20320;-64
2022/08/30 05:39:06;;;;;;;7.05;3.00;;;;;;;;;;5072715;28;20259;-64
2022/08/30 05:41:32;;;;;;;6.68;2.88;;;;;;;;;;5072530;28;20012;-65
2022/08/30 05:43:58;;;;;;;16.17;2.92;;;;;;;;;;5072885;28;20354;-65
2022/08/30 05:46:24;;;;;;;11.98;3.53;;;;;;;;;;5071807;28;20025;-65
2022/08/30 05:48:49;;;;;;;14.13;3.15;;;;;;;;;;5072336;28;20031;-64
2022/08/30 05:51:19;;;;;;;7.10;3.13;;;;;;;;;;5072186;28;20013;-64
2022/08/30 05:53:45;;;;;;;12.50;3.20;;;;;;;;;;5072491;28;20020;-64
2022/08/30 05:56:11;;;;;;;14.65;2.80;;;;;;;;;;5072329;28;20404;-64
2022/08/30 05:58:36;;;;;;;5.32;2.45;;;;;;;;;;5071897;28;20024;-64
2022/08/30 06:01:01;;;;;;;6.10;2.70;;;;;;;;;;5072407;28;20020;-64
2022/08/30 06:03:27;;;;;;;7.43;3.55;;;;;;;;;;5072277;28;20020;-66
2022/08/30 06:05:52;;;;;;;12.70;2.92;;;;;;;;;;5054009;28;20044;-65
2022/08/30 06:08:17;;;;;;;9.95;3.05;;;;;;;;;;5071862;28;20024;-65
2022/08/30 06:10:43;;;;;;;9.45;2.88;;;;;;;;;;5072175;28;20063;-65
2022/08/30 06:13:08;;;;;;;8.90;3.10;;;;;;;;;;5072283;28;20020;-63
2022/08/30 06:15:33;;;;;;;10.63;2.90;;;;;;;;;;5071987;28;20330;-63
2022/08/30 06:17:59;;;;;;;10.60;2.72;;;;;;;;;;5071856;28;20060;-64
2022/08/30 06:20:24;;;;;;;6.57;2.58;;;;;;;;;;5071797;28;20044;-63
2022/08/30 06:22:49;;;;;;;12.95;3.28;;;;;;;;;;5071947;28;20483;-64
2022/08/30 06:25:15;;;;;;;9.20;2.85;;;;;;;;;;5071502;28;20017;-64
2022/08/30 06:27:41;;;;;;;10.90;3.30;;;;;;;;;;5071875;28;20024;-64
2022/08/30 06:30:07;;;;;;;5.88;2.55;;;;;;;;;;5071601;28;20155;-64
2022/08/30 06:32:32;;;;;;;6.90;2.65;;;;;;;;;;5071884;28;20016;-64
2022/08/30 06:34:58;;;;;;;10.52;2.92;;;;;;;;;;5071666;28;20023;-64
2022/08/30 06:37:23;;;;;;;9.60;2.90;;;;;;;;;;5071386;28;20072;-64
2022/08/30 06:39:56;;;;;;;9.97;3.20;;;;;;;;;;5071772;28;20024;-64
2022/08/30 06:42:21;;;;;;;9.52;2.60;;;;;;;;;;5071262;28;20247;-63
2022/08/30 06:44:46;;;;;;;5.53;3.00;;;;;;;;;;5071412;28;20423;-66
2022/08/30 06:47:11;;;;;;;5.47;2.70;;;;;;;;;;5070820;28;20021;-64
2022/08/30 06:49:36;;;;;;;8.13;2.30;;;;;;;;;;5071294;28;20251;-65
2022/08/30 06:52:02;;;;;;;10.50;2.63;;;;;;;;;;5071240;28;20255;-64
2022/08/30 06:54:27;;;;;;;4.57;2.53;;;;;;;;;;5071080;28;20060;-65
2022/08/30 06:56:52;;;;;;;5.70;2.37;;;;;;;;;;5071060;28;20027;-65
2022/08/30 06:59:17;;;;;;;3.92;2.63;;;;;;;;;;5071138;28;20017;-64
2022/08/30 07:01:43;;;;;;;6.05;2.40;;;;;;;;;;5071247;28;20012;-64
2022/08/30 07:04:08;;;;;;;5.60;2.67;;;;;;;;;;5071034;28;20009;-64
2022/08/30 07:06:34;;;;;;;5.93;2.87;;;;;;;;;;5070308;28;20258;-63
2022/08/30 07:08:59;;;;;;;5.75;2.75;;;;;;;;;;5071163;28;20433;-64
2022/08/30 07:11:25;;;;;;;9.40;2.20;;;;;;;;;;5070974;28;20095;-65
2022/08/30 07:13:51;;;;;;;7.07;2.20;;;;;;;;;;5071121;28;20025;-65
2022/08/30 07:16:16;;;;;;;26.83;3.33;;;;;;;;;;5070509;28;20727;-65
2022/08/30 07:18:50;;;;;;;5.03;2.40;;;;;;;;;;5071099;28;20025;-66
2022/08/30 07:21:17;;;;;;;5.20;2.60;;;;;;;;;;5070795;28;20469;-66
2022/08/30 07:23:44;;;;;;;9.07;2.47;;;;;;;;;;5071260;28;20029;-65
2022/08/30 07:26:10;;;;;;;7.85;2.40;;;;;;;;;;5070617;28;20017;-65
2022/08/30 07:28:36;;;;;;;5.30;2.10;;;;;;;;;;5070812;28;20028;-66
2022/08/30 07:31:01;;;;;;;5.93;2.30;;;;;;;;;;5070919;28;20025;-66
2022/08/30 07:33:27;;;;;;;5.28;2.10;;;;;;;;;;5070563;28;20111;-65
2022/08/30 07:35:52;;;;;;;8.27;2.10;;;;;;;;;;5070357;28;20357;-65
2022/08/30 07:38:17;;;;;;;5.43;2.13;;;;;;;;;;5070450;28;20741;-65
2022/08/30 07:40:43;;;;;;;6.05;2.60;;;;;;;;;;5070618;28;20659;-66
2022/08/30 07:43:08;;;;;;;7.88;2.28;;;;;;;;;;5070685;28;20021;-66
2022/08/30 07:45:33;;;;;;;8.43;2.33;;;;;;;;;;5070190;28;20024;-65
2022/08/30 07:47:58;;;;;;;12.70;2.50;;;;;;;;;;5070441;28;20352;-65
2022/08/30 07:50:23;;;;;;;10.63;2.53;;;;;;;;;;5070517;28;20032;-65
2022/08/30 07:52:49;;;;;;;4.75;2.05;;;;;;;;;;5070500;28;20032;-66
2022/08/30 07:55:14;;;;;;;6.07;2.63;;;;;;;;;;5070150;28;20028;-65
2022/08/30 07:57:39;;;;;;;9.37;2.23;;;;;;;;;;5070366;28;20265;-65
2022/08/30 08:00:05;;;;;;;4.47;2.40;;;;;;;;;;5070475;28;20053;-65
2022/08/30 08:02:30;;;;;;;8.43;2.20;;;;;;;;;;5070379;28;20610;-65
2022/08/30 08:04:55;;;;;;;13.10;2.38;;;;;;;;;;5070402;28;20021;-65
2022/08/30 08:07:20;;;;;;;3.70;1.87;;;;;;;;;;5070079;28;20111;-65
2022/08/30 08:09:46;;;;;;;4.77;2.30;;;;;;;;;;5070472;28;20020;-65
2022/08/30 08:12:11;;;;;;;9.50;2.60;;;;;;;;;;5070626;28;20263;-66
2022/08/30 08:14:36;;;;;;;11.95;3.08;;;;;;;;;;5070586;28;20088;-66
2022/08/30 08:17:01;;;;;;;7.23;2.30;;;;;;;;;;5069006;28;20023;-66
2022/08/30 08:19:27;;;;;;;7.55;2.70;;;;;;;;;;5074372;28;20483;-65
2022/08/30 08:21:55;;;;;;;6.87;2.37;;;;;;;;;;5074291;28;20021;-65
2022/08/30 08:24:21;;;;;;;21.92;2.72;;;;;;;;;;5074668;28;20016;-65
2022/08/30 08:26:46;;;;;;;8.40;2.95;;;;;;;;;;5055986;28;20461;-65
2022/08/30 08:29:11;;;;;;;5.63;2.55;;;;;;;;;;5073906;28;20425;-66
2022/08/30 08:31:37;;;;;;;4.07;2.17;;;;;;;;;;5074137;28;20461;-65
2022/08/30 08:34:04;;;;;;;4.90;2.20;;;;;;;;;;5074176;28;20492;-65
2022/08/30 08:36:30;;;;;;;6.05;2.03;;;;;;;;;;5073639;28;20023;-65
2022/08/30 08:38:55;;;;;;;4.20;2.45;;;;;;;;;;5074167;28;20020;-65
2022/08/30 08:41:37;;;;;;;7.07;2.38;;;;;;;;;;5073720;28;20031;-65
2022/08/30 08:44:20;;;;;;;5.00;1.95;;;;;;;;;;5074060;28;20100;-65
2022/08/30 08:46:53;;;;;;;5.97;2.05;;;;;;;;;;5073365;28;20659;-66
2022/08/30 08:49:19;;;;;;;7.97;2.58;;;;;;;;;;5073692;28;20464;-65
2022/08/30 08:54:47;;;;;;;5.07;2.13;;;;;;;;;;5074066;28;20055;-65
2022/08/30 08:57:12;;;;;;;4.05;1.80;;;;;;;;;;5073429;28;20031;-65
2022/08/30 08:59:38;;;;;;;7.45;2.25;;;;;;;;;;5073602;28;20012;-65
2022/08/30 09:02:15;;;;;;;6.75;2.75;;;;;;;;;;5073434;28;20021;-66
2022/08/30 09:04:40;;;;;;;5.38;2.33;;;;;;;;;;5073369;28;20016;-65
2022/08/30 09:07:15;;;;;;;7.70;2.43;;;;;;;;;;5072950;28;20032;-66
2022/08/30 09:09:41;;;;;;;4.97;2.47;;;;;;;;;;5073376;28;20266;-66
2022/08/30 09:12:07;;;;;;;7.57;2.30;;;;;;;;;;5073394;28;20020;-65
2022/08/30 09:14:43;;;;;;;7.80;2.40;;;;;;;;;;5073429;28;20107;-65
2022/08/30 09:17:10;;;;;;;7.45;2.40;;;;;;;;;;5072866;28;20020;-66
2022/08/30 09:19:50;;;;;;;8.63;3.05;;;;;;;;;;5072812;28;20017;-65
2022/08/30 09:22:27;;;;;;;3.97;2.08;;;;;;;;;;5073022;28;20479;-65
2022/08/30 09:24:56;;;;;;;4.50;2.42;;;;;;;;;;5073085;28;20027;-65
2022/08/30 09:27:24;;;;;;;6.35;2.22;;;;;;;;;;5072609;28;20032;-65
2022/08/30 09:29:55;;;;;;;4.57;2.20;;;;;;;;;;5072714;28;20385;-66
2022/08/30 09:32:24;;;;;;;6.18;2.42;;;;;;;;;;5072915;28;20473;-66
2022/08/30 09:34:50;;;;;;;;;;;;;;;;;;5073426;28;20021;-67
2022/08/30 09:37:26;;;;;;;6.68;2.08;;;;;;;;;;5072729;28;19911;-65
2022/08/30 09:39:51;;;;;;;11.25;2.30;;;;;;;;;;5073129;28;20089;-65
2022/08/30 09:42:25;;;;;;;6.47;2.33;;;;;;;;;;5072913;28;20443;-65
2022/08/30 09:44:51;;;;;;;3.78;2.20;;;;;;;;;;5072816;28;20392;-67
2022/08/30 09:47:21;;;;;;;6.03;2.55;;;;;;;;;;5072277;28;20020;-66
2022/08/30 09:49:47;;;;;;;6.07;2.53;;;;;;;;;;5072773;28;20509;-66
2022/08/30 09:52:19;;;;;;;6.43;2.72;;;;;;;;;;5072475;28;20640;-65
2022/08/30 09:54:53;;;;;;;5.15;1.88;;;;;;;;;;5072238;28;20021;-66
2022/08/30 09:57:26;;;;;;;6.85;2.00;;;;;;;;;;5072187;28;20056;-65
2022/08/30 10:00:06;;;;;;;7.20;2.10;;;;;;;;;;5072326;28;20103;-66
2022/08/30 10:02:47;;;;;;;9.43;2.40;;;;;;;;;;5072399;28;20020;-66
2022/08/30 10:05:30;;;;;;;4.72;2.03;;;;;;;;;;5072089;28;20038;-67
2022/08/30 10:08:10;;;;;;;6.35;2.10;;;;;;;;;;5072116;28;20025;-65
2022/08/30 10:10:44;;;;;;;9.98;2.10;;;;;;;;;;5072159;28;20064;-66
2022/08/30 10:13:15;;;;;;;6.90;2.25;;;;;;;;;;5072308;28;20139;-65
2022/08/30 10:15:50;;;;;;;3.40;2.03;;;;;;;;;;5071897;28;20094;-65
2022/08/30 10:18:20;;;;;;;7.45;1.83;;;;;;;;;;5072082;28;20359;-67
2022/08/30 10:20:57;;;;;;;6.93;2.22;;;;;;;;;;5072132;28;20013;-66
2022/08/30 10:23:34;;;;;;;5.00;1.90;;;;;;;;;;5072317;28;20062;-65
2022/08/30 10:26:08;;;;;;;9.25;2.13;;;;;;;;;;5071764;28;20067;-65
2022/08/30 10:28:54;;;;;;;6.55;2.20;;;;;;;;;;5071731;28;20020;-65
2022/08/30 10:31:38;;;;;;;3.22;1.77;;;;;;;;;;5072025;28;20488;-65
2022/08/30 10:34:23;;;;;;;7.05;2.25;;;;;;;;;;5071866;28;20451;-66
2022/08/30 10:36:56;;;;;;;7.97;1.83;;;;;;;;;;5070868;28;20033;-67
2022/08/30 10:39:23;;;;;;;6.43;1.80;;;;;;;;;;5071691;28;20048;-65
2022/08/30 10:41:49;;;;;;;7.10;2.22;;;;;;;;;;5070831;28;20028;-65
2022/08/30 10:44:18;;;;;;;5.65;2.22;;;;;;;;;;5071477;28;20013;-65
2022/08/30 10:46:56;;;;;;;5.07;2.10;;;;;;;;;;5070998;28;20047;-66
2022/08/30 10:49:26;;;;;;;4.43;2.30;;;;;;;;;;5071567;28;20638;-65
2022/08/30 10:51:51;;;;;;;;;;;;;;;;;;5071775;28;20472;-65
2022/08/30 10:54:19;;;;;;;9.60;2.45;;;;;;;;;;5071247;28;19912;-67
2022/08/30 10:56:48;;;;;;;4.85;1.63;;;;;;;;;;5053071;28;20526;-66
2022/08/30 10:59:15;;;;;;;5.38;2.13;;;;;;;;;;5071095;28;20028;-66
2022/08/30 11:01:44;;;;;;;9.25;2.83;;;;;;;;;;5071346;28;20378;-66
2022/08/30 11:04:27;;;;;;;5.07;2.08;;;;;;;;;;5071095;28;20028;-66
2022/08/30 11:07:11;;;;;;;9.05;2.38;;;;;;;;;;5070882;28;20017;-66
2022/08/30 11:09:53;;;;;;;5.55;2.45;;;;;;;;;;5071462;28;20028;-65
2022/08/30 11:12:31;;;;;;;6.30;2.53;;;;;;;;;;5071058;28;20020;-65
2022/08/30 11:14:57;;;;;;;5.28;2.33;;;;;;;;;;5070747;28;20095;-65
2022/08/30 11:17:25;;;;;;;4.05;2.03;;;;;;;;;;5070677;28;20107;-65
2022/08/30 11:19:52;;;;;;;6.80;2.22;;;;;;;;;;5070790;28;20020;-65
2022/08/30 11:22:28;;;;;;;9.98;2.92;;;;;;;;;;5070716;28;20023;-65
2022/08/30 11:24:56;;;;;;;6.38;2.47;;;;;;;;;;5070558;28;20020;-66
2022/08/30 11:27:40;;;;;;;5.57;2.40;;;;;;;;;;5070450;28;20036;-66
2022/08/30 11:30:23;;;;;;;4.57;2.10;;;;;;;;;;5070617;28;20021;-66
2022/08/30 11:32:58;;;;;;;6.70;2.63;;;;;;;;;;5070696;28;20444;-65
2022/08/30 11:35:40;;;;;;;10.93;2.67;;;;;;;;;;5070545;28;20389;-67
2022/08/30 11:38:24;;;;;;;3.15;1.52;;;;;;;;;;5070495;28;20103;-66
2022/08/30 11:40:55;;;;;;;8.07;2.20;;;;;;;;;;5070550;28;20384;-65
2022/08/30 11:43:32;;;;;;;6.57;2.45;;;;;;;;;;5070617;28;20044;-66
2022/08/30 11:46:12;;;;;;;3.40;1.98;;;;;;;;;;5070223;28;20064;-65
2022/08/30 11:48:40;;;;;;;4.93;2.10;;;;;;;;;;5070651;28;20016;-65
2022/08/30 11:51:10;;;;;;;4.65;2.42;;;;;;;;;;5070352;28;20046;-65
2022/08/30 11:53:41;;;;;;;5.15;2.45;;;;;;;;;;5070786;28;20021;-65
2022/08/30 11:56:11;;;;;;;12.77;3.65;;;;;;;;;;5070253;28;20026;-66
2022/08/30 11:58:56;;;;;;;4.93;2.53;;;;;;;;;;5070481;28;20469;-65
2022/08/30 12:01:31;;;;;;;5.72;1.88;;;;;;;;;;5070295;28;20056;-66
2022/08/30 12:03:58;;;;;;;7.22;2.83;;;;;;;;;;5070069;28;20055;-65
2022/08/30 12:06:42;;;;;;;7.15;2.58;;;;;;;;;;5070004;28;20020;-67
2022/08/30 12:09:08;;;;;;;4.65;2.00;;;;;;;;;;5070102;28;20456;-66
2022/08/30 12:11:33;;;;;;;10.15;2.28;;;;;;;;;;5070306;28;20473;-65
2022/08/30 12:13:59;;;;;;;8.03;2.47;;;;;;;;;;5070078;28;20028;-66
2022/08/30 12:18:26;;;;;;;6.50;1.90;;;;;;;;;;5069856;28;20027;-66
2022/08/30 12:19:28;;;;;;;10.30;2.20;;;;;;;;;;5070030;28;20020;-66
2022/08/30 12:21:58;;;;;;;8.60;2.28;;;;;;;;;;5069468;28;20024;-66
2022/08/30 12:24:27;;;;;;;13.00;2.45;;;;;;;;;;5070167;28;20017;-67
2022/08/30 12:26:52;;;;;;;11.40;2.65;;;;;;;;;;5069472;28;20120;-66
2022/08/30 12:29:17;;;;;;;7.25;2.70;;;;;;;;;;5070124;28;20505;-66
2022/08/30 12:31:45;;;;;;;5.07;2.30;;;;;;;;;;5069090;28;20016;-65
2022/08/30 12:34:27;;;;;;;7.57;2.75;;;;;;;;;;5069959;28;20091;-65
2022/08/30 12:36:52;;;;;;;9.45;2.40;;;;;;;;;;5069852;28;20491;-66
2022/08/30 12:39:23;;;;;;;10.53;2.90;;;;;;;;;;5070070;28;20032;-65
2022/08/30 12:41:48;;;;;;;4.88;2.30;;;;;;;;;;5069822;28;20020;-66
2022/08/30 12:44:32;;;;;;;4.43;2.08;;;;;;;;;;5069758;28;20033;-65
2022/08/30 12:47:00;;;;;;;4.53;2.42;;;;;;;;;;5069559;28;20020;-66
2022/08/30 12:49:28;;;;;;;6.20;2.20;;;;;;;;;;5069785;28;20120;-65
2022/08/30 12:51:54;;;;;;;10.38;3.13;;;;;;;;;;5069686;28;20024;-65
2022/08/30 12:54:26;;;;;;;11.75;2.60;;;;;;;;;;5069780;28;20019;-67
2022/08/30 12:56:51;;;;;;;7.63;2.58;;;;;;;;;;5069204;28;20092;-67
2022/08/30 12:59:36;;;;;;;10.07;2.80;;;;;;;;;;5070002;28;20616;-65
2022/08/30 13:02:14;;;;;;;5.15;2.13;;;;;;;;;;5069498;28;20024;-66
2022/08/30 13:04:39;;;;;;;10.98;2.70;;;;;;;;;;5071991;28;20044;-65
2022/08/30 13:07:05;;;;;;;12.57;2.42;;;;;;;;;;5072728;28;20461;-65
2022/08/30 13:09:32;;;;;;;11.68;2.88;;;;;;;;;;5073331;28;20012;-65
2022/08/30 13:11:58;;;;;;;8.18;2.72;;;;;;;;;;5073175;28;20028;-66
2022/08/30 13:14:40;;;;;;;12.30;2.20;;;;;;;;;;5073156;28;20021;-67
2022/08/30 13:17:09;;;;;;;12.85;3.20;;;;;;;;;;5072712;28;20020;-65
2022/08/30 13:19:36;;;;;;;11.02;3.45;;;;;;;;;;5073387;28;20012;-65
2022/08/30 13:22:01;;;;;;;5.63;2.22;;;;;;;;;;5073006;28;20017;-65
2022/08/30 13:24:27;;;;;;;5.68;2.47;;;;;;;;;;5073327;28;20389;-65
2022/08/30 13:26:57;;;;;;;4.60;2.75;;;;;;;;;;5072565;28;20020;-66
2022/08/30 13:29:26;;;;;;;9.15;3.08;;;;;;;;;;5072828;28;20023;-65
2022/08/30 13:31:51;;;;;;;5.50;2.55;;;;;;;;;;5072822;28;20020;-65
2022/08/30 13:34:17;;;;;;;6.40;2.60;;;;;;;;;;5073047;28;20032;-67
2022/08/30 13:36:48;;;;;;;9.65;2.42;;;;;;;;;;5072545;28;20451;-66
2022/08/30 13:39:13;;;;;;;6.40;2.78;;;;;;;;;;5072399;28;20518;-66
2022/08/30 13:41:38;;;;;;;6.47;2.60;;;;;;;;;;5054695;28;20028;-65
2022/08/30 13:44:04;;;;;;;5.93;2.35;;;;;;;;;;5072505;28;20021;-66
2022/08/30 13:46:29;;;;;;;7.45;2.35;;;;;;;;;;5072480;28;20500;-65
2022/08/30 13:49:17;;;;;;;5.77;2.30;;;;;;;;;;5072324;28;20081;-65
2022/08/30 13:51:42;;;;;;;8.13;3.13;;;;;;;;;;5072454;28;20032;-66
2022/08/30 13:54:07;;;;;;;7.03;3.03;;;;;;;;;;5072064;28;20024;-65
2022/08/30 13:56:32;;;;;;;14.07;3.53;;;;;;;;;;5072240;28;20024;-66
2022/08/30 13:58:58;;;;;;;7.70;3.35;;;;;;;;;;5072187;28;20477;-65
2022/08/30 14:01:23;;;;;;;3.97;2.13;;;;;;;;;;5072357;28;20021;-65
2022/08/30 14:03:48;;;;;;;8.57;2.70;;;;;;;;;;5072115;28;20024;-65
2022/08/30 14:06:13;;;;;;;13.70;2.23;;;;;;;;;;5071925;28;20262;-65
2022/08/30 14:08:39;;;;;;;8.93;2.53;;;;;;;;;;5072346;28;20025;-65
2022/08/30 14:11:04;;;;;;;10.73;2.33;;;;;;;;;;5072221;28;20719;-65
2022/08/30 14:13:29;;;;;;;7.30;2.95;;;;;;;;;;5072131;28;20029;-67
2022/08/30 14:15:56;;;;;;;5.07;2.25;;;;;;;;;;5070574;28;20016;-65
2022/08/30 14:18:21;;;;;;;7.93;2.75;;;;;;;;;;5072080;28;20039;-65
2022/08/30 14:20:46;;;;;;;8.23;2.65;;;;;;;;;;5071735;28;20421;-66
2022/08/30 14:23:12;;;;;;;12.02;2.78;;;;;;;;;;5071771;28;20021;-66
2022/08/30 14:25:37;;;;;;;7.93;2.92;;;;;;;;;;5071405;28;20138;-65
2022/08/30 14:28:02;;;;;;;5.13;2.47;;;;;;;;;;5071353;28;20020;-64
2022/08/30 14:30:28;;;;;;;10.30;2.80;;;;;;;;;;5071941;28;20037;-66
2022/08/30 14:32:53;;;;;;;8.03;2.50;;;;;;;;;;5071493;28;20016;-66
2022/08/30 14:35:19;;;;;;;11.40;2.53;;;;;;;;;;5071436;28;20263;-68
2022/08/30 14:37:45;;;;;;;5.45;2.35;;;;;;;;;;5071349;28;20062;-67
2022/08/30 14:40:10;;;;;;;15.50;2.78;;;;;;;;;;5071476;28;20037;-67
2022/08/30 14:42:35;;;;;;;7.45;2.30;;;;;;;;;;5071647;28;20021;-66
2022/08/30 14:45:00;;;;;;;9.23;2.53;;;;;;;;;;5071196;28;20492;-67
2022/08/30 14:47:26;;;;;;;9.30;2.57;;;;;;;;;;5071409;28;20094;-66
2022/08/30 14:49:52;;;;;;;13.15;2.60;;;;;;;;;;5071228;28;20384;-67
2022/08/30 14:52:17;;;;;;;17.05;2.88;;;;;;;;;;5071583;28;20016;-66